Time;durP1;ratioP1;P1;durP2;ratioP2;P2;SDS_P1;SDS_P2;PMS_P1;PMS_P2;Temp;Humidity;BMP_temperature;BMP_pressure;BME280_temperature;BME280_humidity;BME280_pressure;Samples;Min_cycle;Max_cycle;Signal;HPM_P1;HPM_P2
2021/11/24 00:01:30;;;;;;;0.10;0.10;;;;;;;5.22;88.18;103015.03;5075351;28;20029;-68
2021/11/24 00:03:55;;;;;;;0.00;0.00;;;;;;;5.21;88.28;103011.56;5076172;28;20036;-68
2021/11/24 00:06:20;;;;;;;0.00;0.00;;;;;;;5.23;87.93;103011.66;5075948;28;20391;-68
2021/11/24 00:08:48;;;;;;;0.00;0.00;;;;;;;5.22;88.19;103007.25;5076033;28;20298;-68
2021/11/24 00:11:13;;;;;;;0.00;0.00;;;;;;;5.23;87.92;103012.59;5074146;28;20453;-68
2021/11/24 00:13:39;;;;;;;0.07;0.07;;;;;;;5.25;87.93;103010.13;5075933;28;20036;-67
2021/11/24 00:16:05;;;;;;;0.00;0.00;;;;;;;5.26;88.08;103009.34;5058146;28;20050;-68
2021/11/24 00:18:30;;;;;;;0.17;0.17;;;;;;;5.27;87.97;103005.97;5058273;28;20025;-68
2021/11/24 00:20:55;;;;;;;0.07;0.07;;;;;;;5.28;88.08;102992.19;5075434;28;20082;-68
2021/11/24 00:23:21;;;;;;;0.00;0.00;;;;;;;5.29;87.90;102995.72;5075822;28;20090;-68
2021/11/24 00:25:46;;;;;;;0.10;0.10;;;;;;;5.29;88.13;102993.09;5058264;28;20032;-68
2021/11/24 00:28:11;;;;;;;0.00;0.00;;;;;;;5.31;88.00;102994.13;5076095;28;20016;-68
2021/11/24 00:30:37;;;;;;;0.00;0.00;;;;;;;5.31;88.16;102999.34;5074592;28;20087;-68
2021/11/24 00:33:02;;;;;;;0.00;0.00;;;;;;;5.31;87.93;102997.66;5075747;28;20036;-68
2021/11/24 00:35:27;;;;;;;0.00;0.00;;;;;;;5.33;87.81;102996.09;5075111;28;20390;-68
2021/11/24 00:37:53;;;;;;;0.00;0.00;;;;;;;5.34;87.97;102990.13;5074084;28;20031;-69
2021/11/24 00:40:19;;;;;;;0.00;0.00;;;;;;;5.35;87.94;102985.81;5072285;28;20016;-69
2021/11/24 00:42:44;;;;;;;0.00;0.00;;;;;;;5.35;87.94;102981.53;5074974;28;20060;-69
2021/11/24 00:45:10;;;;;;;0.00;0.00;;;;;;;5.36;88.06;102985.06;5075964;28;20446;-69
2021/11/24 00:47:36;;;;;;;0.00;0.00;;;;;;;5.40;87.89;102984.53;5079347;28;20288;-68
2021/11/24 00:50:02;;;;;;;0.00;0.00;;;;;;;5.44;88.02;102986.59;5079123;28;20027;-68
2021/11/24 00:52:29;;;;;;;0.20;0.20;;;;;;;5.46;87.99;102990.22;5079163;28;20124;-69
2021/11/24 00:54:55;;;;;;;0.00;0.00;;;;;;;5.46;87.95;102984.13;5079178;28;20047;-68
2021/11/24 00:57:20;;;;;;;0.00;0.00;;;;;;;5.46;87.95;102977.25;5061432;28;20418;-68
2021/11/24 00:59:46;;;;;;;0.00;0.00;;;;;;;5.48;88.02;102974.78;5079208;28;20056;-68
2021/11/24 01:02:11;;;;;;;0.00;0.00;;;;;;;5.49;87.86;102979.19;5061758;28;20044;-69
2021/11/24 01:04:37;;;;;;;0.00;0.00;;;;;;;5.49;88.07;102980.09;5078755;28;20043;-67
2021/11/24 01:07:02;;;;;;;0.40;0.40;;;;;;;5.49;87.79;102974.00;5078596;28;20077;-68
2021/11/24 01:09:27;;;;;;;0.07;0.07;;;;;;;5.51;88.14;102975.03;5078542;28;20390;-68
2021/11/24 01:11:53;;;;;;;0.00;0.00;;;;;;;5.53;88.10;102978.66;5079385;28;20032;-68
2021/11/24 01:14:18;;;;;;;0.00;0.00;;;;;;;5.55;88.07;102973.59;5079726;28;20047;-69
2021/11/24 01:16:44;;;;;;;0.00;0.00;;;;;;;5.56;88.21;102967.59;5079650;28;20424;-68
2021/11/24 01:19:10;;;;;;;0.10;0.10;;;;;;;5.57;88.13;102964.22;5079037;28;20107;-68
2021/11/24 01:21:35;;;;;;;0.10;0.10;;;;;;;5.57;87.81;102953.81;5043514;28;20025;-68
2021/11/24 01:24:01;;;;;;;0.00;0.00;;;;;;;5.57;87.88;102951.22;5064284;28;20025;-68
2021/11/24 01:26:26;;;;;;;0.10;0.10;;;;;;;5.56;88.08;102955.53;5061263;28;20043;-69
2021/11/24 01:28:51;;;;;;;0.00;0.00;;;;;;;5.56;87.84;102955.53;5079720;28;20317;-68
2021/11/24 01:31:17;;;;;;;0.00;0.00;;;;;;;5.57;87.97;102954.75;5079273;28;20032;-68
2021/11/24 01:33:43;;;;;;;0.10;0.10;;;;;;;5.56;87.87;102950.34;5079205;28;20096;-70
2021/11/24 01:36:09;;;;;;;0.00;0.00;;;;;;;5.57;88.19;102953.81;5079661;28;20108;-68
2021/11/24 01:38:34;;;;;;;0.00;0.00;;;;;;;5.59;88.29;102953.19;5079243;28;20058;-68
2021/11/24 01:41:00;;;;;;;0.00;0.00;;;;;;;5.59;88.18;102942.78;5077952;28;20068;-69
2021/11/24 01:43:25;;;;;;;0.00;0.00;;;;;;;5.59;88.08;102949.66;5078858;28;20016;-67
2021/11/24 01:45:50;;;;;;;0.00;0.00;;;;;;;5.62;87.99;102952.53;5061749;28;20027;-68
2021/11/24 01:48:16;;;;;;;0.00;0.00;;;;;;;5.62;88.36;102943.03;5079372;28;20032;-69
2021/11/24 01:50:41;;;;;;;0.03;0.03;;;;;;;5.64;88.26;102945.75;5078751;28;20017;-68
2021/11/24 01:53:07;;;;;;;0.00;0.00;;;;;;;5.64;87.95;102940.56;5079528;28;20028;-68
2021/11/24 01:55:32;;;;;;;0.10;0.10;;;;;;;5.66;87.99;102940.69;5061134;28;20021;-69
2021/11/24 01:57:58;;;;;;;0.10;0.10;;;;;;;5.65;88.00;102944.97;5078213;28;20059;-68
2021/11/24 02:00:30;;;;;;;0.03;0.03;;;;;;;5.66;88.11;102938.97;5061301;28;20044;-68
2021/11/24 02:02:56;;;;;;;0.00;0.00;;;;;;;5.68;88.18;102939.13;5078870;28;20025;-68
2021/11/24 02:05:22;;;;;;;0.00;0.00;;;;;;;5.67;88.13;102938.19;5078684;28;20421;-68
2021/11/24 02:07:47;;;;;;;0.20;0.20;;;;;;;5.68;87.98;102932.25;5060941;28;20082;-68
2021/11/24 02:10:13;;;;;;;0.00;0.00;;;;;;;5.70;88.33;102932.34;5061618;28;20052;-68
2021/11/24 02:12:39;;;;;;;0.00;0.00;;;;;;;5.71;87.96;102932.47;5078694;28;20283;-68
2021/11/24 02:15:05;;;;;;;0.17;0.17;;;;;;;5.71;88.08;102923.75;5079156;28;20096;-68
2021/11/24 02:17:31;;;;;;;0.00;0.00;;;;;;;5.73;87.89;102922.22;5043606;28;20064;-68
2021/11/24 02:19:56;;;;;;;0.00;0.00;;;;;;;5.72;88.16;102920.41;5078363;28;20051;-68
2021/11/24 02:22:22;;;;;;;0.10;0.10;;;;;;;5.72;87.66;102916.09;5060623;28;20032;-69
2021/11/24 02:24:47;;;;;;;0.00;0.00;;;;;;;5.72;87.92;102904.81;5061049;28;20032;-69
2021/11/24 02:27:13;;;;;;;0.00;0.00;;;;;;;5.72;87.93;102902.22;5061450;28;20066;-68
2021/11/24 02:29:39;;;;;;;0.10;0.10;;;;;;;5.72;87.81;102903.09;5059864;28;20071;-69
2021/11/24 02:32:05;;;;;;;0.00;0.00;;;;;;;5.72;87.65;102894.41;5060591;28;20115;-68
2021/11/24 02:34:31;;;;;;;0.20;0.20;;;;;;;5.72;87.93;102891.81;5077793;28;20348;-68
2021/11/24 02:37:00;;;;;;;0.10;0.10;;;;;;;5.73;88.21;102889.31;5078775;28;20032;-68
2021/11/24 02:39:26;;;;;;;0.00;0.00;;;;;;;5.72;88.19;102884.00;5060075;28;20040;-69
2021/11/24 02:41:52;;;;;;;0.00;0.00;;;;;;;5.72;87.97;102882.31;5076349;28;20039;-70
2021/11/24 02:44:23;;;;;;;0.00;0.00;;;;;;;5.72;87.99;102879.69;5078287;28;20025;-68
2021/11/24 02:46:51;;;;;;;0.00;0.00;;;;;;;5.73;87.95;102868.50;5077870;28;20032;-68
2021/11/24 02:49:16;;;;;;;0.10;0.10;;;;;;;5.75;87.75;102876.44;5060891;28;20075;-68
2021/11/24 02:51:42;;;;;;;0.10;0.10;;;;;;;5.76;87.85;102873.97;5076249;28;20063;-69
2021/11/24 02:54:08;;;;;;;0.00;0.00;;;;;;;5.75;87.87;102869.53;5078097;28;20337;-69
2021/11/24 02:56:33;;;;;;;0.20;0.20;;;;;;;5.76;87.84;102860.97;5060501;28;20049;-69
2021/11/24 02:58:59;;;;;;;0.00;0.00;;;;;;;5.77;87.77;102864.47;5077895;28;20021;-68
2021/11/24 03:01:24;;;;;;;0.00;0.00;;;;;;;5.78;87.92;102856.81;5077494;28;20032;-69
2021/11/24 03:03:49;;;;;;;0.10;0.10;;;;;;;5.78;87.90;102853.28;5077729;28;20024;-69
2021/11/24 03:06:15;;;;;;;0.00;0.00;;;;;;;5.78;87.82;102848.09;5077455;28;20163;-68
2021/11/24 03:08:41;;;;;;;0.07;0.07;;;;;;;5.77;87.89;102842.00;5042949;28;20040;-67
2021/11/24 03:11:07;;;;;;;0.10;0.10;;;;;;;5.77;87.81;102842.00;5077936;28;20024;-68
2021/11/24 03:13:32;;;;;;;0.00;0.00;;;;;;;5.76;87.89;102839.25;5077382;28;20021;-68
2021/11/24 03:15:58;;;;;;;0.10;0.10;;;;;;;5.75;87.83;102837.44;5077490;28;20020;-68
2021/11/24 03:18:33;;;;;;;0.10;0.10;;;;;;;5.75;88.08;102835.75;5077749;28;20333;-70
2021/11/24 03:20:59;;;;;;;0.03;0.03;;;;;;;5.77;88.03;102833.28;5043184;28;20032;-69
2021/11/24 03:23:24;;;;;;;0.00;0.00;;;;;;;5.76;87.74;102829.78;5077634;28;20028;-70
2021/11/24 03:25:50;;;;;;;0.10;0.10;;;;;;;5.76;88.04;102832.38;5076897;28;20085;-69
2021/11/24 03:28:15;;;;;;;0.00;0.00;;;;;;;5.79;87.97;102823.91;5040735;28;20064;-69
2021/11/24 03:30:40;;;;;;;0.00;0.00;;;;;;;5.78;87.80;102815.22;5067514;28;20111;-68
2021/11/24 03:33:06;;;;;;;0.07;0.07;;;;;;;5.81;87.94;102806.75;5074000;28;20040;-68
2021/11/24 03:35:33;;;;;;;0.00;0.00;;;;;;;5.82;87.74;102800.75;5076540;28;20028;-68
2021/11/24 03:38:00;;;;;;;0.07;0.07;;;;;;;5.82;87.89;102795.56;5077497;28;20020;-68
2021/11/24 03:40:28;;;;;;;0.00;0.00;;;;;;;5.83;87.61;102793.84;5075391;28;20052;-67
2021/11/24 03:42:54;;;;;;;0.10;0.10;;;;;;;5.81;87.80;102791.16;5076748;28;20035;-68
2021/11/24 03:45:23;;;;;;;0.10;0.10;;;;;;;5.80;87.93;102786.75;5077243;28;20032;-67
2021/11/24 03:47:48;;;;;;;0.10;0.10;;;;;;;5.81;87.76;102785.94;5076919;28;20024;-69
2021/11/24 03:50:15;;;;;;;0.10;0.10;;;;;;;5.80;87.59;102778.94;5076993;28;20050;-69
2021/11/24 03:52:40;;;;;;;0.10;0.10;;;;;;;5.82;87.90;102784.22;5076725;28;20029;-68
2021/11/24 03:55:08;;;;;;;0.10;0.10;;;;;;;5.82;87.75;102781.63;5077243;28;20110;-70
2021/11/24 03:57:33;;;;;;;0.03;0.03;;;;;;;5.82;87.50;102779.03;5077024;28;20047;-69
2021/11/24 03:59:59;;;;;;;0.00;0.00;;;;;;;5.80;88.10;102778.94;5076862;28;20029;-68
2021/11/24 04:02:24;;;;;;;0.00;0.00;;;;;;;5.82;87.57;102781.63;5075742;28;20106;-69
2021/11/24 04:04:50;;;;;;;0.10;0.10;;;;;;;5.83;87.74;102778.25;5055810;28;20029;-68
2021/11/24 04:07:15;;;;;;;0.10;0.10;;;;;;;5.83;87.64;102775.66;5074180;28;20028;-68
2021/11/24 04:09:41;;;;;;;0.00;0.00;;;;;;;5.83;87.83;102778.25;5076625;28;20024;-69
2021/11/24 04:12:07;;;;;;;0.00;0.00;;;;;;;5.81;87.68;102767.75;5076896;28;20028;-68
2021/11/24 04:14:32;;;;;;;0.10;0.10;;;;;;;5.83;87.84;102781.75;5058596;28;20028;-69
2021/11/24 04:16:58;;;;;;;0.07;0.07;;;;;;;5.84;87.79;102772.28;5076747;28;20033;-69
2021/11/24 04:19:23;;;;;;;0.00;0.00;;;;;;;5.83;87.81;102760.97;5042380;28;20193;-69
2021/11/24 04:21:49;;;;;;;0.00;0.00;;;;;;;5.82;87.68;102755.63;5079774;28;20048;-68
2021/11/24 04:24:14;;;;;;;0.00;0.00;;;;;;;5.82;87.75;102758.22;5063538;28;20028;-68
2021/11/24 04:26:40;;;;;;;0.10;0.10;;;;;;;5.82;87.88;102758.22;5080476;28;20107;-69
2021/11/24 04:29:05;;;;;;;0.10;0.10;;;;;;;5.80;87.79;102758.13;5081134;28;20302;-69
2021/11/24 04:31:31;;;;;;;0.10;0.10;;;;;;;5.81;87.94;102753.81;5062550;28;20060;-69
2021/11/24 04:33:56;;;;;;;0.10;0.10;;;;;;;5.82;87.87;102750.44;5080129;28;20034;-68
2021/11/24 04:36:21;;;;;;;0.10;0.10;;;;;;;5.83;87.95;102747.03;5042147;28;20029;-68
2021/11/24 04:38:47;;;;;;;0.10;0.10;;;;;;;5.82;87.89;102738.34;5054172;28;20029;-68
2021/11/24 04:41:12;;;;;;;0.00;0.00;;;;;;;5.85;87.91;102735.97;5049981;28;20314;-68
2021/11/24 04:43:46;;;;;;;0.00;0.00;;;;;;;5.91;87.59;102741.66;5079754;28;20397;-68
2021/11/24 04:46:13;;;;;;;0.10;0.10;;;;;;;5.91;87.73;102735.53;5047523;28;20035;-69
2021/11/24 04:48:39;;;;;;;0.00;0.00;;;;;;;5.91;87.84;102736.47;5080078;28;20035;-68
2021/11/24 04:51:04;;;;;;;0.00;0.00;;;;;;;5.94;87.46;102728.00;5062662;28;20024;-68
2021/11/24 04:53:31;;;;;;;0.10;0.10;;;;;;;5.95;87.62;102731.50;5062378;28;20294;-69
2021/11/24 04:56:02;;;;;;;0.00;0.00;;;;;;;5.95;87.04;102728.88;5080060;28;20078;-69
2021/11/24 04:58:27;;;;;;;0.10;0.10;;;;;;;5.94;87.52;102727.09;5045827;28;20115;-68
2021/11/24 05:00:53;;;;;;;0.00;0.00;;;;;;;5.94;87.49;102724.47;5079629;28;20099;-67
2021/11/24 05:03:19;;;;;;;0.07;0.07;;;;;;;5.94;87.31;102721.88;5080042;28;20032;-68
2021/11/24 05:05:44;;;;;;;0.00;0.00;;;;;;;5.95;87.34;102721.09;5062193;28;20032;-68
2021/11/24 05:08:10;;;;;;;0.00;0.00;;;;;;;5.95;87.43;102722.00;5062319;28;20036;-68
2021/11/24 05:10:35;;;;;;;0.07;0.07;;;;;;;5.95;87.31;102711.59;5074722;28;20048;-68
2021/11/24 05:13:01;;;;;;;0.33;0.33;;;;;;;5.94;87.42;102715.00;5078330;28;20055;-67
2021/11/24 05:15:32;;;;;;;0.00;0.00;;;;;;;5.95;87.51;102718.50;5079595;28;20032;-68
2021/11/24 05:18:03;;;;;;;0.00;0.00;;;;;;;5.97;87.30;102717.81;5079618;28;20394;-68
2021/11/24 05:20:30;;;;;;;0.10;0.10;;;;;;;5.97;87.56;102709.13;5058114;28;20051;-68
2021/11/24 05:22:59;;;;;;;0.10;0.10;;;;;;;5.95;87.49;102709.00;5070885;28;20029;-68
2021/11/24 05:25:25;;;;;;;0.10;0.10;;;;;;;5.96;87.42;102702.09;5062662;28;20029;-68
2021/11/24 05:27:51;;;;;;;0.10;0.10;;;;;;;5.96;87.61;102696.91;5079889;28;20363;-68
2021/11/24 05:30:17;;;;;;;0.00;0.00;;;;;;;5.97;87.48;102703.94;5079359;28;20127;-67
2021/11/24 05:32:42;;;;;;;0.10;0.10;;;;;;;5.97;87.36;102706.53;5077325;28;20150;-68
2021/11/24 05:35:08;;;;;;;0.10;0.10;;;;;;;5.96;87.51;102696.91;5077349;28;20292;-69
2021/11/24 05:37:33;;;;;;;0.00;0.00;;;;;;;5.95;87.33;102701.22;5079173;28;20052;-68
2021/11/24 05:39:59;;;;;;;0.10;0.10;;;;;;;5.96;87.48;102707.28;5079149;28;20338;-68
2021/11/24 05:42:26;;;;;;;0.10;0.10;;;;;;;5.96;87.47;102709.91;5057563;28;20048;-68
2021/11/24 05:45:01;;;;;;;0.00;0.00;;;;;;;5.95;87.27;102715.88;5058185;28;20108;-68
2021/11/24 05:50:11;;;;;;;0.00;0.00;;;;;;;5.96;87.44;102713.41;5078790;28;20089;-68
2021/11/24 05:52:36;;;;;;;0.10;0.10;;;;;;;5.96;87.33;102703.00;5061494;28;20044;-68
2021/11/24 05:55:02;;;;;;;0.10;0.10;;;;;;;5.98;87.17;102703.16;5078160;28;20040;-68
2021/11/24 05:57:28;;;;;;;0.10;0.10;;;;;;;5.99;87.24;102707.56;5077214;28;20045;-68
2021/11/24 05:59:53;;;;;;;0.10;0.10;;;;;;;5.98;87.21;102692.75;5069923;28;20372;-68
2021/11/24 06:02:18;;;;;;;0.10;0.10;;;;;;;5.99;87.20;102687.63;5059029;28;20055;-68
2021/11/24 06:04:44;;;;;;;0.10;0.10;;;;;;;6.01;87.26;102685.16;5077930;28;20032;-68
2021/11/24 06:07:09;;;;;;;0.00;0.00;;;;;;;6.01;87.29;102679.97;5078567;28;20323;-68
2021/11/24 06:09:34;;;;;;;0.10;0.10;;;;;;;6.01;87.64;102682.56;5078526;28;20366;-67
2021/11/24 06:12:00;;;;;;;0.00;0.00;;;;;;;5.99;87.27;102674.63;5061415;28;20048;-68
2021/11/24 06:14:25;;;;;;;0.03;0.03;;;;;;;6.08;87.12;102670.94;5078612;28;20409;-68
2021/11/24 06:16:51;;;;;;;0.00;0.00;;;;;;;6.05;87.51;102669.94;5078531;28;20066;-68
2021/11/24 06:19:16;;;;;;;0.00;0.00;;;;;;;6.08;87.05;102671.88;5060785;28;20382;-68
2021/11/24 06:21:41;;;;;;;0.10;0.10;;;;;;;6.10;86.77;102677.19;5078082;28;20110;-68
2021/11/24 06:24:07;;;;;;;0.03;0.03;;;;;;;6.07;86.88;102675.28;5061035;28;20110;-69
2021/11/24 06:26:32;;;;;;;0.10;0.10;;;;;;;6.07;86.94;102667.47;5060727;28;20024;-69
2021/11/24 06:28:57;;;;;;;0.07;0.07;;;;;;;6.08;86.73;102674.47;5078698;28;20093;-67
2021/11/24 06:31:25;;;;;;;0.10;0.10;;;;;;;6.08;86.82;102668.34;5071210;28;20048;-68
2021/11/24 06:33:51;;;;;;;0.10;0.10;;;;;;;6.08;87.02;102671.88;5060589;28;20027;-69
2021/11/24 06:36:16;;;;;;;0.00;0.00;;;;;;;6.07;87.05;102661.34;5077317;28;20032;-69
2021/11/24 06:38:41;;;;;;;0.03;0.03;;;;;;;6.04;87.09;102660.31;5078110;28;20031;-68
2021/11/24 06:41:07;;;;;;;0.00;0.00;;;;;;;6.04;87.02;102657.72;5059138;28;20168;-69
2021/11/24 06:43:32;;;;;;;0.10;0.10;;;;;;;6.04;87.04;102657.72;5043335;28;20039;-69
2021/11/24 06:45:58;;;;;;;0.00;0.00;;;;;;;6.04;86.95;102651.63;5078188;28;20074;-67
2021/11/24 06:48:23;;;;;;;0.10;0.10;;;;;;;6.04;87.08;102647.31;5078051;28;20029;-68
2021/11/24 06:50:49;;;;;;;0.00;0.00;;;;;;;6.04;87.09;102652.53;5060221;28;20052;-68
2021/11/24 06:53:14;;;;;;;0.00;0.00;;;;;;;6.04;87.23;102649.91;5077036;28;20311;-67
2021/11/24 06:55:39;;;;;;;0.07;0.07;;;;;;;6.04;86.68;102649.91;5060422;28;20028;-68
2021/11/24 06:58:05;;;;;;;0.00;0.00;;;;;;;6.03;87.30;102640.31;5077622;28;20060;-68
2021/11/24 07:00:30;;;;;;;0.00;0.00;;;;;;;6.03;87.22;102636.78;5077602;28;20032;-68
2021/11/24 07:02:56;;;;;;;0.00;0.00;;;;;;;6.04;87.13;102636.03;5078176;28;20043;-68
2021/11/24 07:05:21;;;;;;;0.00;0.00;;;;;;;6.04;87.43;102633.44;5057602;28;20043;-68
2021/11/24 07:07:47;;;;;;;0.00;0.00;;;;;;;6.08;87.45;102632.84;5057734;28;20048;-68
2021/11/24 07:10:12;;;;;;;0.00;0.00;;;;;;;6.08;87.17;102632.84;5077800;28;20108;-68
2021/11/24 07:12:37;;;;;;;0.00;0.00;;;;;;;6.08;87.78;102639.75;5077531;28;20398;-68
2021/11/24 07:15:04;;;;;;;0.63;0.20;;;;;;;6.07;87.01;102637.94;5077763;28;20398;-69
2021/11/24 07:17:29;;;;;;;0.03;0.03;;;;;;;6.12;87.20;102634.00;5077167;28;20378;-69
2021/11/24 07:19:55;;;;;;;0.00;0.00;;;;;;;6.12;86.82;102631.41;5059570;28;20081;-69
2021/11/24 07:22:21;;;;;;;0.10;0.10;;;;;;;6.11;87.11;102640.00;5077407;28;20103;-69
2021/11/24 07:24:46;;;;;;;0.10;0.10;;;;;;;6.09;87.16;102639.88;5076683;28;20135;-69
2021/11/24 07:27:12;;;;;;;0.10;0.10;;;;;;;6.08;87.22;102638.06;5076840;28;20024;-69
2021/11/24 07:29:38;;;;;;;0.20;0.20;;;;;;;6.09;87.12;102638.97;5058834;28;20299;-69
2021/11/24 07:32:03;;;;;;;0.03;0.03;;;;;;;6.08;87.33;102632.84;5059545;28;20325;-69
2021/11/24 07:34:30;;;;;;;0.20;0.20;;;;;;;6.09;87.06;102631.19;5075414;28;20367;-68
2021/11/24 07:36:55;;;;;;;0.10;0.10;;;;;;;6.09;87.32;102634.66;5073711;28;20024;-68
2021/11/24 07:39:21;;;;;;;0.20;0.20;;;;;;;6.09;87.09;102637.25;5076015;28;20287;-68
2021/11/24 07:41:46;;;;;;;0.10;0.10;;;;;;;6.10;87.28;102644.28;5076348;28;20037;-68
2021/11/24 07:44:11;;;;;;;0.10;0.10;;;;;;;6.12;87.09;102634.00;5077114;28;20028;-69
2021/11/24 07:46:37;;;;;;;0.00;0.00;;;;;;;6.12;87.29;102634.00;5075985;28;20040;-68
2021/11/24 07:49:02;;;;;;;0.10;0.10;;;;;;;6.14;87.09;102632.41;5069863;28;20047;-68
2021/11/24 07:51:28;;;;;;;0.10;0.10;;;;;;;6.16;87.11;102633.44;5076386;28;20059;-68
2021/11/24 07:53:53;;;;;;;0.10;0.10;;;;;;;6.16;87.16;102630.84;5059572;28;20028;-68
2021/11/24 07:56:19;;;;;;;0.07;0.07;;;;;;;6.16;87.18;102629.13;5076205;28;20033;-68
2021/11/24 07:58:44;;;;;;;0.10;0.10;;;;;;;6.21;86.96;102633.78;5076820;28;20028;-68
2021/11/24 08:01:11;;;;;;;0.00;0.00;;;;;;;6.19;87.00;102625.88;5059042;28;20047;-69
2021/11/24 08:03:37;;;;;;;0.00;0.00;;;;;;;6.20;87.11;102614.66;5076076;28;20406;-69
2021/11/24 08:06:03;;;;;;;0.10;0.10;;;;;;;6.23;86.68;102614.88;5058868;28;20051;-68
2021/11/24 08:08:28;;;;;;;0.20;0.20;;;;;;;6.23;86.89;102614.00;5057634;28;20036;-68
2021/11/24 08:10:54;;;;;;;0.10;0.10;;;;;;;6.25;87.00;102607.19;5058573;28;20031;-68
2021/11/24 08:13:21;;;;;;;0.10;0.10;;;;;;;6.27;86.98;102616.00;5075071;28;20100;-68
2021/11/24 08:15:47;;;;;;;0.10;0.10;;;;;;;6.30;86.54;102614.53;5058112;28;20020;-68
2021/11/24 08:18:12;;;;;;;0.10;0.10;;;;;;;6.31;86.73;102607.66;5075948;28;20329;-67
2021/11/24 08:20:38;;;;;;;0.10;0.10;;;;;;;6.32;86.84;102609.47;5058575;28;20032;-67
2021/11/24 08:23:03;;;;;;;0.10;0.10;;;;;;;6.32;86.75;102601.66;5077021;28;20028;-69
2021/11/24 08:25:29;;;;;;;0.10;0.10;;;;;;;6.33;86.43;102600.88;5071675;28;20076;-68
2021/11/24 08:27:55;;;;;;;0.10;0.10;;;;;;;6.36;86.47;102610.59;5077114;28;20299;-68
2021/11/24 08:30:22;;;;;;;0.10;0.10;;;;;;;6.39;86.39;102603.94;5076610;28;20025;-68
2021/11/24 08:32:49;;;;;;;0.10;0.10;;;;;;;6.40;86.27;102600.53;5076965;28;20046;-68
2021/11/24 08:35:16;;;;;;;0.20;0.20;;;;;;;6.39;86.41;102595.19;5058081;28;20417;-69
2021/11/24 08:37:41;;;;;;;0.10;0.10;;;;;;;6.40;86.06;102595.31;5076362;28;20032;-69
2021/11/24 08:40:08;;;;;;;0.10;0.10;;;;;;;6.41;86.16;102584.13;5059245;28;20031;-69
2021/11/24 08:42:33;;;;;;;0.03;0.03;;;;;;;6.49;85.79;102584.69;5076448;28;20032;-69
2021/11/24 08:45:03;;;;;;;0.17;0.17;;;;;;;6.50;85.84;102580.38;5070412;28;20032;-69
2021/11/24 08:47:28;;;;;;;0.00;0.00;;;;;;;6.49;85.85;102586.38;5055183;28;20037;-68
2021/11/24 08:49:53;;;;;;;0.00;0.00;;;;;;;6.51;85.76;102577.91;5055947;28;20037;-69
2021/11/24 08:52:19;;;;;;;0.10;0.10;;;;;;;6.51;85.50;102579.59;5054195;28;20033;-69
2021/11/24 08:54:45;;;;;;;0.20;0.20;;;;;;;6.57;85.40;102578.34;5055369;28;20060;-68
2021/11/24 08:57:11;;;;;;;0.10;0.10;;;;;;;6.58;85.09;102574.94;5057482;28;20543;-68
2021/11/24 08:59:36;;;;;;;0.10;0.10;;;;;;;6.58;84.94;102568.81;5057021;28;20041;-69
2021/11/24 09:02:02;;;;;;;0.10;0.10;;;;;;;6.62;85.03;102568.28;5076681;28;20032;-69
2021/11/24 09:04:27;;;;;;;0.10;0.10;;;;;;;6.64;84.77;102563.16;5058383;28;20032;-68
2021/11/24 09:06:52;;;;;;;0.20;0.20;;;;;;;6.65;84.92;102565.88;5078536;28;20036;-69
2021/11/24 09:09:18;;;;;;;0.20;0.20;;;;;;;6.65;85.07;102568.47;5080197;28;20107;-68
2021/11/24 09:11:43;;;;;;;0.13;0.13;;;;;;;6.66;84.89;102564.19;5079357;28;20049;-69
2021/11/24 09:14:09;;;;;;;0.10;0.10;;;;;;;6.67;84.97;102559.06;5080163;28;20042;-68
2021/11/24 09:16:34;;;;;;;0.10;0.10;;;;;;;6.71;84.64;102563.72;5062559;28;20046;-68
2021/11/24 09:18:59;;;;;;;0.13;0.13;;;;;;;6.71;84.25;102558.50;5079762;28;20030;-69
2021/11/24 09:21:25;;;;;;;0.10;0.10;;;;;;;6.74;84.62;102560.44;5079332;28;20059;-68
2021/11/24 09:23:52;;;;;;;0.10;0.10;;;;;;;6.78;84.46;102561.56;5080086;28;20368;-69
2021/11/24 09:26:25;;;;;;;0.10;0.10;;;;;;;6.83;84.10;102554.97;5079758;28;20390;-68
2021/11/24 09:28:50;;;;;;;0.10;0.10;;;;;;;6.79;83.59;102545.13;5079323;28;20044;-68
2021/11/24 09:31:17;;;;;;;0.20;0.20;;;;;;;6.80;83.71;102545.22;5079734;28;20028;-68
2021/11/24 09:33:42;;;;;;;0.20;0.20;;;;;;;6.80;83.15;102541.75;5079312;28;20039;-68
2021/11/24 09:36:08;;;;;;;0.10;0.10;;;;;;;6.84;83.48;102546.34;5061886;28;20020;-68
2021/11/24 09:38:33;;;;;;;0.20;0.20;;;;;;;6.89;82.30;102544.09;5079360;28;20081;-68
2021/11/24 09:41:03;;;;;;;0.10;0.10;;;;;;;6.88;82.30;102545.78;5079130;28;20348;-68
2021/11/24 09:43:30;;;;;;;0.53;0.53;;;;;;;6.87;81.73;102542.25;5079399;28;20029;-68
2021/11/24 09:45:57;;;;;;;0.13;0.13;;;;;;;6.85;82.19;102541.25;5062188;28;20029;-68
2021/11/24 09:48:23;;;;;;;0.20;0.20;;;;;;;6.84;82.47;102542.06;5079136;28;20028;-68
2021/11/24 09:50:49;;;;;;;0.10;0.10;;;;;;;6.82;82.62;102535.84;5078765;28;20028;-68
2021/11/24 09:53:15;;;;;;;0.30;0.30;;;;;;;6.81;82.30;102534.03;5079492;28;20028;-68
2021/11/24 09:55:41;;;;;;;0.17;0.17;;;;;;;6.81;82.19;102530.53;5079018;28;20107;-68
2021/11/24 09:58:08;;;;;;;0.10;0.10;;;;;;;6.79;82.42;102530.41;5079332;28;20112;-68
2021/11/24 10:00:35;;;;;;;0.17;0.17;;;;;;;6.81;82.37;102528.84;5061231;28;20020;-68
2021/11/24 10:03:02;;;;;;;0.47;0.47;;;;;;;6.81;81.65;102527.91;5044513;28;20127;-68
2021/11/24 10:05:30;;;;;;;0.10;0.10;;;;;;;6.83;82.11;102526.31;5078345;28;20034;-68
2021/11/24 10:07:55;;;;;;;0.10;0.10;;;;;;;6.80;82.17;102536.53;5079140;28;20166;-69
2021/11/24 10:10:21;;;;;;;0.20;0.20;;;;;;;6.80;82.72;102523.50;5078772;28;20402;-68
2021/11/24 10:12:47;;;;;;;0.20;0.20;;;;;;;6.80;82.84;102528.72;5061231;28;20035;-69
2021/11/24 10:15:32;;;;;;;0.23;0.23;;;;;;;6.78;82.21;102530.31;5078767;28;20020;-68
2021/11/24 10:18:14;;;;;;;0.20;0.20;;;;;;;6.78;82.42;102525.09;5076871;28;20078;-69
2021/11/24 10:20:48;;;;;;;0.13;0.13;;;;;;;6.77;82.62;102513.78;5077877;28;20130;-69
2021/11/24 10:23:23;;;;;;;0.10;0.10;;;;;;;6.77;82.64;102505.97;5078732;28;20390;-68
2021/11/24 10:25:49;;;;;;;0.10;0.10;;;;;;;6.82;82.40;102498.47;5077944;28;20351;-68
2021/11/24 10:28:29;;;;;;;0.40;0.40;;;;;;;6.81;82.38;102496.66;5077543;28;20024;-69
2021/11/24 10:30:56;;;;;;;0.20;0.20;;;;;;;6.82;82.19;102491.59;5061273;28;20032;-69
2021/11/24 10:33:26;;;;;;;0.30;0.30;;;;;;;6.82;82.42;102480.25;5078726;28;20077;-68
2021/11/24 10:36:05;;;;;;;0.20;0.20;;;;;;;6.83;82.59;102476.84;5078203;28;20292;-68
2021/11/24 10:38:41;;;;;;;0.10;0.10;;;;;;;6.88;82.22;102475.47;5077638;28;20028;-68
2021/11/24 10:41:08;;;;;;;0.25;0.25;;;;;;;6.88;81.90;102465.06;5078529;28;20355;-68
2021/11/24 10:43:45;;;;;;;0.20;0.20;;;;;;;6.91;82.18;102465.25;5078084;28;20072;-67
2021/11/24 10:46:13;;;;;;;0.20;0.20;;;;;;;6.94;81.73;102467.19;5078211;28;20024;-67
2021/11/24 10:48:39;;;;;;;0.20;0.20;;;;;;;6.96;80.65;102457.75;5077541;28;20032;-68
2021/11/24 10:51:27;;;;;;;0.10;0.10;;;;;;;6.97;80.78;102464.81;5077693;28;20077;-68
2021/11/24 10:54:12;;;;;;;0.13;0.13;;;;;;;6.98;80.67;102450.97;5077897;28;20028;-68
2021/11/24 10:57:02;;;;;;;0.20;0.20;;;;;;;7.01;80.73;102449.50;5060466;28;20065;-68
2021/11/24 10:59:29;;;;;;;0.20;0.20;;;;;;;7.07;79.60;102440.28;5060216;28;20032;-68
2021/11/24 11:02:16;;;;;;;0.10;0.10;;;;;;;7.09;80.34;102429.16;5077978;28;20020;-68
2021/11/24 11:05:05;;;;;;;0.20;0.20;;;;;;;7.15;79.35;102432.19;5077484;28;20283;-68
2021/11/24 11:07:33;;;;;;;0.13;0.13;;;;;;;7.14;79.35;102422.56;5077470;28;20028;-67
2021/11/24 11:10:00;;;;;;;0.20;0.20;;;;;;;7.13;79.02;102420.78;5060053;28;20021;-68
2021/11/24 11:12:30;;;;;;;0.10;0.10;;;;;;;7.17;79.21;102408.84;5077157;28;20086;-68
2021/11/24 11:15:10;;;;;;;0.13;0.13;;;;;;;7.18;79.62;102399.31;5060345;28;20017;-67
2021/11/24 11:17:55;;;;;;;0.20;0.20;;;;;;;7.22;79.49;102394.41;5043600;28;20020;-68
2021/11/24 11:20:23;;;;;;;0.10;0.10;;;;;;;7.24;78.46;102395.41;5077258;28;20413;-69
2021/11/24 11:23:07;;;;;;;0.30;0.30;;;;;;;7.28;77.90;102380.88;5060191;28;20031;-69
2021/11/24 11:25:32;;;;;;;0.20;0.20;;;;;;;7.32;77.20;102374.19;5059956;28;20399;-69
2021/11/24 11:27:59;;;;;;;0.20;0.20;;;;;;;7.34;77.46;102363.06;5077401;28;20127;-67
2021/11/24 11:30:25;;;;;;;0.30;0.30;;;;;;;7.35;77.24;102361.38;5059152;28;20036;-68
2021/11/24 11:32:51;;;;;;;0.23;0.23;;;;;;;7.41;77.09;102357.44;5060061;28;20025;-67
2021/11/24 11:35:16;;;;;;;0.20;0.20;;;;;;;7.41;77.12;102346.16;5059449;28;20020;-68